Terminal Aerodrome Forecast
Issued by NWS Greer, SC

Current Version | Previous Version | Text Only | Print | Product List | Glossary On
Versions: 1 2 3 4 5 6 7 8 9 10 11 12 13 14 15 16
258
FTUS42 KGSP 141720
TAFGSP
TAF
KGSP 141720Z 1418/1518 08005KT P6SM OVC060
     FM142000 11007KT P6SM OVC060
     FM150400 10004KT P6SM SCT030 OVC060 PROB30 1504/1510 4SM -SN
      OVC040
     FM151000 05006KT P6SM OVC020 PROB30 1512/1513 4SM -FZRAPL
      OVC010
     FM151300 05006KT 6SM -FZRA OVC015=

USA.gov is the U.S. government's official web portal to all federal, state and local government web resources and services.